Time;durP1;ratioP1;P1;durP2;ratioP2;P2;SDS_P1;SDS_P2;PMS_P1;PMS_P2;Temp;Humidity;BMP_temperature;BMP_pressure;BME280_temperature;BME280_humidity;BME280_pressure;Samples;Min_cycle;Max_cycle;Signal;HPM_P1;HPM_P2
2023/08/13 00:01:17;;;;;;;4.85;2.50;;;23.30;99.90;;;;;;5081511;28;20402;-73
2023/08/13 00:03:43;;;;;;;4.78;2.50;;;23.30;99.90;;;;;;5102337;27;20417;-73
2023/08/13 00:06:09;;;;;;;3.45;2.33;;;23.20;99.90;;;;;;5094748;27;21361;-73
2023/08/13 00:08:36;;;;;;;3.20;2.38;;;23.20;99.90;;;;;;5097219;27;20482;-73
2023/08/13 00:11:09;;;;;;;3.92;2.40;;;23.20;99.90;;;;;;5077964;28;20415;-73
2023/08/13 00:13:35;;;;;;;3.70;2.50;;;23.20;99.90;;;;;;5093774;27;20739;-73
2023/08/13 00:16:02;;;;;;;4.50;2.75;;;23.20;99.90;;;;;;5098171;27;20889;-73
2023/08/13 00:18:29;;;;;;;3.40;2.70;;;23.20;99.90;;;;;;5097184;27;20440;-73
2023/08/13 00:20:55;;;;;;;3.22;2.70;;;23.20;99.90;;;;;;5096570;27;20455;-73
2023/08/13 00:23:21;;;;;;;3.40;2.45;;;23.20;99.90;;;;;;5096112;27;20459;-74
2023/08/13 00:25:47;;;;;;;3.07;2.70;;;23.20;99.90;;;;;;5094626;27;20417;-73
2023/08/13 00:28:14;;;;;;;4.00;2.87;;;23.20;99.90;;;;;;5101956;27;20409;-72
2023/08/13 00:30:40;;;;;;;4.38;2.65;;;23.20;99.90;;;;;;5096154;28;20913;-73
2023/08/13 00:33:06;;;;;;;3.92;2.63;;;23.20;99.90;;;;;;5125423;27;20396;-73
2023/08/13 00:35:32;;;;;;;4.38;2.60;;;23.10;99.90;;;;;;5089705;27;20422;-73
2023/08/13 00:37:59;;;;;;;4.20;2.60;;;23.10;99.90;;;;;;5096649;27;20484;-73
2023/08/13 00:40:25;;;;;;;5.03;2.92;;;23.10;99.90;;;;;;5079894;28;20408;-73
2023/08/13 00:42:52;;;;;;;4.47;2.95;;;23.00;99.90;;;;;;5094772;27;20403;-72
2023/08/13 00:45:18;;;;;;;4.25;2.88;;;23.00;99.90;;;;;;5097141;27;20437;-73
2023/08/13 00:47:46;;;;;;;6.38;3.00;;;23.00;99.90;;;;;;5095478;28;20408;-73
2023/08/13 00:50:12;;;;;;;5.38;3.10;;;23.00;99.90;;;;;;5091324;27;20893;-73
2023/08/13 00:52:39;;;;;;;3.70;2.90;;;22.80;99.90;;;;;;5123871;27;20410;-73
2023/08/13 00:55:07;;;;;;;4.28;2.85;;;22.80;99.90;;;;;;5079558;28;20408;-73
2023/08/13 00:57:34;;;;;;;4.32;3.00;;;22.80;99.90;;;;;;5093130;27;20402;-73
2023/08/13 01:00:02;;;;;;;7.23;3.70;;;22.80;99.90;;;;;;5095881;27;20937;-73
2023/08/13 01:02:29;;;;;;;10.98;3.53;;;22.80;99.90;;;;;;5103811;27;20918;-73
2023/08/13 01:04:55;;;;;;;5.90;3.05;;;22.80;99.90;;;;;;5095838;28;20407;-73
2023/08/13 01:07:59;;;;;;;5.55;3.50;;;22.80;99.90;;;;;;5098566;27;20499;-73
2023/08/13 01:10:35;;;;;;;4.35;2.97;;;22.80;99.90;;;;;;5093149;27;20482;-73
2023/08/13 01:13:30;;;;;;;5.47;3.43;;;22.70;99.90;;;;;;5091482;27;20416;-72
2023/08/13 01:15:59;;;;;;;5.13;3.05;;;22.80;99.90;;;;;;5099886;27;20566;-73
2023/08/13 01:18:27;;;;;;;6.38;3.40;;;22.70;99.90;;;;;;5117596;27;20402;-73
2023/08/13 01:20:54;;;;;;;4.55;3.30;;;22.70;99.90;;;;;;5097639;27;20546;-73
2023/08/13 01:23:20;;;;;;;4.40;3.00;;;22.70;99.90;;;;;;5095222;27;20439;-73
2023/08/13 01:26:00;;;;;;;4.00;3.20;;;22.70;99.90;;;;;;5096274;27;20404;-72
2023/08/13 01:29:03;;;;;;;4.03;3.28;;;22.70;99.90;;;;;;5075290;27;20406;-73
2023/08/13 01:31:34;;;;;;;4.95;3.25;;;22.60;99.90;;;;;;5106663;27;20410;-73
2023/08/13 01:34:02;;;;;;;5.32;3.28;;;22.60;99.90;;;;;;5097358;27;20992;-73
2023/08/13 01:36:30;;;;;;;5.78;3.00;;;22.60;99.90;;;;;;5084699;28;20403;-73
2023/08/13 01:38:59;;;;;;;6.10;3.50;;;22.60;99.90;;;;;;5078606;28;20396;-73
2023/08/13 01:41:50;;;;;;;5.80;3.40;;;22.60;99.90;;;;;;5099647;27;20409;-73
2023/08/13 01:44:17;;;;;;;5.18;3.42;;;22.60;99.90;;;;;;5099965;27;20876;-73
2023/08/13 01:46:43;;;;;;;5.60;3.58;;;22.50;99.90;;;;;;5096287;27;20815;-73
2023/08/13 01:49:09;;;;;;;6.57;3.70;;;22.50;99.90;;;;;;5093489;27;20424;-72
2023/08/13 01:51:35;;;;;;;5.63;3.70;;;22.50;99.90;;;;;;5098307;27;20507;-71
2023/08/13 01:54:02;;;;;;;6.90;3.50;;;22.50;99.90;;;;;;5091513;27;20486;-71
2023/08/13 01:56:28;;;;;;;4.50;3.35;;;22.50;99.90;;;;;;5101785;27;20463;-71
2023/08/13 01:58:54;;;;;;;4.57;3.50;;;22.50;99.90;;;;;;5080144;28;20503;-71
2023/08/13 02:01:21;;;;;;;5.55;3.90;;;22.60;99.90;;;;;;5098517;27;20455;-73
2023/08/13 02:03:47;;;;;;;7.28;4.20;;;22.60;99.90;;;;;;5088978;27;20403;-73
2023/08/13 02:06:13;;;;;;;5.90;4.00;;;22.70;99.90;;;;;;5100022;28;20448;-73
2023/08/13 02:08:39;;;;;;;7.50;4.10;;;22.70;99.90;;;;;;5095600;27;20457;-73
2023/08/13 02:11:05;;;;;;;5.88;3.70;;;22.70;99.90;;;;;;5096366;27;20419;-73
2023/08/13 02:13:32;;;;;;;5.45;3.83;;;22.70;99.90;;;;;;5093555;27;21037;-73
2023/08/13 02:16:05;;;;;;;5.47;3.90;;;22.60;99.90;;;;;;5076581;28;20411;-73
2023/08/13 02:18:32;;;;;;;6.45;3.95;;;22.60;99.90;;;;;;5093729;27;20403;-73
2023/08/13 02:20:58;;;;;;;6.28;4.38;;;22.60;99.90;;;;;;5095057;27;21234;-73
2023/08/13 02:23:24;;;;;;;6.43;3.85;;;22.60;99.90;;;;;;5098237;27;20522;-73
2023/08/13 02:25:53;;;;;;;5.60;3.80;;;22.60;99.90;;;;;;5094754;28;21008;-73
2023/08/13 02:28:19;;;;;;;6.45;3.90;;;22.60;99.90;;;;;;5094816;28;20404;-73
2023/08/13 02:30:46;;;;;;;6.25;4.30;;;22.60;99.90;;;;;;5113569;27;20412;-72
2023/08/13 02:33:12;;;;;;;6.15;4.82;;;22.60;99.90;;;;;;5109420;27;20400;-73
2023/08/13 02:35:38;;;;;;;6.28;5.18;;;22.60;99.90;;;;;;5095957;27;20884;-73
2023/08/13 02:38:04;;;;;;;6.53;5.17;;;22.60;99.90;;;;;;5096175;27;21109;-73
2023/08/13 02:40:30;;;;;;;7.78;5.28;;;22.60;99.90;;;;;;5098649;28;20434;-72
2023/08/13 02:42:57;;;;;;;7.65;5.30;;;22.60;99.90;;;;;;5081762;28;20402;-73
2023/08/13 02:45:23;;;;;;;7.53;5.55;;;22.70;99.90;;;;;;5093453;28;21243;-72
2023/08/13 02:47:49;;;;;;;7.68;5.32;;;22.70;99.90;;;;;;5099926;27;20487;-73
2023/08/13 02:50:15;;;;;;;6.95;5.88;;;22.70;99.90;;;;;;5095733;28;20417;-72
2023/08/13 02:52:42;;;;;;;7.07;5.60;;;22.70;99.90;;;;;;5078354;28;20419;-73
2023/08/13 02:55:08;;;;;;;8.07;5.97;;;22.80;99.90;;;;;;5098268;28;20408;-72
2023/08/13 02:57:35;;;;;;;7.88;6.05;;;22.70;99.90;;;;;;5076521;28;20438;-73
2023/08/13 03:00:01;;;;;;;6.75;6.05;;;22.80;99.90;;;;;;5105046;27;20411;-72
2023/08/13 03:02:27;;;;;;;7.28;5.70;;;22.80;99.90;;;;;;5106478;27;20981;-72
2023/08/13 03:04:54;;;;;;;7.20;6.05;;;22.80;99.90;;;;;;5098472;27;20409;-72
2023/08/13 03:07:20;;;;;;;6.80;5.88;;;22.80;99.90;;;;;;5128999;27;20408;-73
2023/08/13 03:09:47;;;;;;;9.47;6.47;;;22.80;99.90;;;;;;5080487;28;20494;-72
2023/08/13 03:12:13;;;;;;;8.45;6.07;;;22.80;99.90;;;;;;5101201;27;20420;-72
2023/08/13 03:14:41;;;;;;;7.53;6.65;;;22.90;99.90;;;;;;5105050;27;20429;-72
2023/08/13 03:17:07;;;;;;;9.65;6.10;;;22.90;99.90;;;;;;5102876;27;20760;-72
2023/08/13 03:19:34;;;;;;;9.18;6.70;;;22.90;99.90;;;;;;5101899;27;20447;-72
2023/08/13 03:22:00;;;;;;;11.97;6.60;;;23.00;99.90;;;;;;5098190;27;20953;-72
2023/08/13 03:24:26;;;;;;;7.60;6.37;;;22.90;99.90;;;;;;5102251;27;20416;-72
2023/08/13 03:26:52;;;;;;;8.82;6.90;;;22.90;99.90;;;;;;5100605;27;20531;-72
2023/08/13 03:29:19;;;;;;;7.78;6.40;;;22.90;99.90;;;;;;5118724;27;20868;-72
2023/08/13 03:31:45;;;;;;;8.37;6.63;;;22.90;99.90;;;;;;5102205;27;20412;-72
2023/08/13 03:34:12;;;;;;;8.80;6.97;;;22.90;99.90;;;;;;5094244;27;20398;-72
2023/08/13 03:36:38;;;;;;;9.02;6.93;;;23.00;99.90;;;;;;5095960;27;20407;-72
2023/08/13 03:39:04;;;;;;;8.95;6.65;;;23.00;99.90;;;;;;5098607;27;20680;-73
2023/08/13 03:41:30;;;;;;;9.35;6.70;;;23.00;99.90;;;;;;5102270;27;20926;-72
2023/08/13 03:43:58;;;;;;;8.52;6.68;;;23.00;99.90;;;;;;5109938;27;20844;-72
2023/08/13 03:46:24;;;;;;;8.32;6.88;;;23.10;99.90;;;;;;5097638;27;20410;-72
2023/08/13 03:48:50;;;;;;;9.32;7.30;;;23.10;99.90;;;;;;5095164;27;20408;-72
2023/08/13 03:51:17;;;;;;;9.82;7.38;;;23.10;99.90;;;;;;5094624;27;20500;-72
2023/08/13 03:53:43;;;;;;;8.15;7.25;;;23.10;99.90;;;;;;5128576;27;20925;-72
2023/08/13 03:56:09;;;;;;;7.68;6.88;;;23.10;99.90;;;;;;5097965;27;20478;-72
2023/08/13 03:58:36;;;;;;;9.43;7.57;;;23.10;99.90;;;;;;5097318;27;20911;-72
2023/08/13 04:01:08;;;;;;;8.60;6.80;;;23.10;99.90;;;;;;5095659;27;20433;-72
2023/08/13 04:03:36;;;;;;;9.75;7.20;;;23.20;99.90;;;;;;5096416;27;20418;-72
2023/08/13 04:06:02;;;;;;;9.48;7.00;;;23.20;99.90;;;;;;5079149;28;20538;-72
2023/08/13 04:08:29;;;;;;;9.27;7.20;;;23.20;99.90;;;;;;5111343;27;20849;-73
2023/08/13 04:10:55;;;;;;;7.85;7.07;;;23.20;99.90;;;;;;5129674;27;21058;-73
2023/08/13 04:13:21;;;;;;;8.35;7.20;;;23.30;99.90;;;;;;5100838;27;20491;-73
2023/08/13 04:15:48;;;;;;;8.00;7.15;;;23.30;99.90;;;;;;5103470;27;20833;-73
2023/08/13 04:18:14;;;;;;;10.00;7.28;;;23.30;99.90;;;;;;5092986;28;20536;-73
2023/08/13 04:20:40;;;;;;;8.77;7.32;;;23.30;99.90;;;;;;5099009;27;20850;-73
2023/08/13 04:23:07;;;;;;;8.13;7.22;;;23.30;99.90;;;;;;5094853;27;20467;-73
2023/08/13 04:25:33;;;;;;;8.98;7.10;;;23.40;99.90;;;;;;5117618;27;20457;-73
2023/08/13 04:27:59;;;;;;;7.70;6.90;;;23.40;99.90;;;;;;5099598;27;20571;-73
2023/08/13 04:30:26;;;;;;;11.45;7.43;;;23.50;99.90;;;;;;5095946;27;20908;-73
2023/08/13 04:32:54;;;;;;;8.87;7.20;;;23.50;99.90;;;;;;5073356;28;20406;-73
2023/08/13 04:35:22;;;;;;;13.88;8.07;;;23.50;99.90;;;;;;5100138;27;20412;-73
2023/08/13 04:37:50;;;;;;;10.70;7.72;;;23.50;99.90;;;;;;5098279;27;20407;-73
2023/08/13 04:40:17;;;;;;;12.45;7.93;;;23.50;99.90;;;;;;5096577;27;20926;-73
2023/08/13 04:42:45;;;;;;;9.52;7.82;;;23.50;99.90;;;;;;5100379;27;20404;-73
2023/08/13 04:45:12;;;;;;;9.15;7.28;;;23.50;99.90;;;;;;5096503;27;20954;-73
2023/08/13 04:47:39;;;;;;;7.90;7.10;;;23.60;99.90;;;;;;5086696;27;20973;-73
2023/08/13 04:50:10;;;;;;;8.82;7.57;;;23.60;99.90;;;;;;5101351;27;20540;-72
2023/08/13 04:52:36;;;;;;;7.97;7.15;;;23.60;99.90;;;;;;5096342;27;20405;-72
2023/08/13 04:55:03;;;;;;;9.63;7.47;;;23.60;99.90;;;;;;5096827;27;20397;-72
2023/08/13 04:57:29;;;;;;;9.18;7.15;;;23.70;99.90;;;;;;5097983;27;20470;-73
2023/08/13 04:59:55;;;;;;;9.45;7.60;;;23.70;99.90;;;;;;5126640;27;20414;-73
2023/08/13 05:02:22;;;;;;;9.63;7.60;;;23.80;99.90;;;;;;5096068;27;20463;-73
2023/08/13 05:04:48;;;;;;;8.13;7.18;;;23.80;99.90;;;;;;5099673;27;20403;-73
2023/08/13 05:07:14;;;;;;;8.23;6.85;;;23.80;99.90;;;;;;5113640;27;20886;-73
2023/08/13 05:09:40;;;;;;;8.18;6.85;;;23.80;99.90;;;;;;5096956;27;20448;-73
2023/08/13 05:12:08;;;;;;;8.75;7.68;;;23.90;99.90;;;;;;5101929;27;20459;-73
2023/08/13 05:14:34;;;;;;;9.03;7.17;;;24.00;99.90;;;;;;5091756;27;20402;-73
2023/08/13 05:17:00;;;;;;;8.63;7.10;;;24.00;99.90;;;;;;5097803;27;20997;-73
2023/08/13 05:19:29;;;;;;;8.70;7.20;;;24.00;99.90;;;;;;5096626;27;20465;-73
2023/08/13 05:21:55;;;;;;;8.17;7.13;;;24.10;99.90;;;;;;5077822;28;20404;-73
2023/08/13 05:24:21;;;;;;;8.23;6.70;;;24.10;99.90;;;;;;5097667;27;20424;-73
2023/08/13 05:26:48;;;;;;;8.13;7.03;;;24.10;99.90;;;;;;5100209;27;21190;-73
2023/08/13 05:29:14;;;;;;;8.15;6.72;;;24.20;99.90;;;;;;5081827;28;20412;-73
2023/08/13 05:31:40;;;;;;;9.48;6.97;;;24.20;99.90;;;;;;5099915;27;20826;-73
2023/08/13 05:34:07;;;;;;;8.25;6.32;;;24.30;99.90;;;;;;5096057;27;20994;-73
2023/08/13 05:36:33;;;;;;;7.87;6.20;;;24.30;99.90;;;;;;5097546;27;20906;-73
2023/08/13 05:39:01;;;;;;;7.57;6.43;;;24.30;99.90;;;;;;5094350;27;20979;-73
2023/08/13 05:41:27;;;;;;;10.57;6.53;;;24.30;99.90;;;;;;5093374;27;21084;-72
2023/08/13 05:43:54;;;;;;;8.48;6.20;;;24.30;99.90;;;;;;5077858;28;20412;-72
2023/08/13 05:46:20;;;;;;;6.97;6.28;;;24.40;99.90;;;;;;5090429;28;20487;-72
2023/08/13 05:48:46;;;;;;;10.40;6.00;;;24.40;99.90;;;;;;5123572;27;20407;-72
2023/08/13 05:51:12;;;;;;;8.68;6.20;;;24.50;99.90;;;;;;5124305;27;20410;-72
2023/08/13 05:53:39;;;;;;;7.45;6.10;;;24.50;99.90;;;;;;5094716;27;20916;-72
2023/08/13 05:56:05;;;;;;;7.03;6.20;;;24.50;99.90;;;;;;5094108;27;21206;-72
2023/08/13 05:58:31;;;;;;;6.82;5.57;;;24.50;99.90;;;;;;5100957;27;20504;-72
2023/08/13 06:00:57;;;;;;;8.10;5.30;;;24.60;99.90;;;;;;5122261;27;20488;-72
2023/08/13 06:03:24;;;;;;;9.95;5.70;;;24.60;99.90;;;;;;5092316;27;20559;-72
2023/08/13 06:05:50;;;;;;;8.45;5.47;;;24.70;99.90;;;;;;5124755;27;20415;-72
2023/08/13 06:08:17;;;;;;;8.63;5.43;;;24.70;99.90;;;;;;5093552;27;20796;-73
2023/08/13 06:10:44;;;;;;;7.67;5.40;;;24.70;99.90;;;;;;5096143;27;20406;-73
2023/08/13 06:13:10;;;;;;;9.60;5.83;;;24.80;99.90;;;;;;5096697;27;20505;-73
2023/08/13 06:15:39;;;;;;;9.48;5.60;;;24.90;99.90;;;;;;5087927;27;20448;-73
2023/08/13 06:18:06;;;;;;;7.57;5.68;;;24.90;99.90;;;;;;5086297;27;20889;-73
2023/08/13 06:20:32;;;;;;;5.88;4.80;;;24.90;99.90;;;;;;5096694;27;20421;-73
2023/08/13 06:22:59;;;;;;;6.97;5.10;;;25.00;99.90;;;;;;5090658;27;20974;-73
2023/08/13 06:25:25;;;;;;;5.53;4.70;;;25.00;99.90;;;;;;5089307;28;20452;-73
2023/08/13 06:27:52;;;;;;;6.53;5.07;;;25.10;99.90;;;;;;5094701;27;20869;-73
2023/08/13 06:30:18;;;;;;;10.63;5.30;;;25.10;99.90;;;;;;5090672;27;20416;-73
2023/08/13 06:32:45;;;;;;;8.05;5.15;;;25.10;99.90;;;;;;5094693;28;20420;-73
2023/08/13 06:35:11;;;;;;;6.60;4.97;;;25.20;99.90;;;;;;5091687;28;20839;-73
2023/08/13 06:37:37;;;;;;;7.78;5.20;;;25.20;99.90;;;;;;5095946;28;20475;-73
2023/08/13 06:40:04;;;;;;;9.30;5.32;;;25.20;99.90;;;;;;5094267;28;20416;-73
2023/08/13 06:42:30;;;;;;;6.78;5.10;;;25.30;99.90;;;;;;5095375;28;20406;-73
2023/08/13 06:44:56;;;;;;;7.97;4.95;;;25.30;99.90;;;;;;5095383;28;20910;-73
2023/08/13 06:47:23;;;;;;;8.38;4.97;;;25.40;99.90;;;;;;5078756;28;20406;-73
2023/08/13 06:49:49;;;;;;;6.03;4.60;;;25.50;99.90;;;;;;5092467;28;20408;-74
2023/08/13 06:52:15;;;;;;;8.32;4.85;;;25.40;99.90;;;;;;5095585;28;20404;-73
2023/08/13 06:54:42;;;;;;;6.03;4.70;;;25.50;99.90;;;;;;5094506;28;20560;-74
2023/08/13 06:57:09;;;;;;;6.57;4.65;;;25.60;99.90;;;;;;5093320;28;20421;-73
2023/08/13 06:59:35;;;;;;;8.88;4.85;;;25.70;99.90;;;;;;5092895;28;20492;-73
2023/08/13 07:02:01;;;;;;;6.57;4.63;;;25.80;99.90;;;;;;5072694;28;20973;-73
2023/08/13 07:04:28;;;;;;;6.07;4.70;;;25.90;99.90;;;;;;5078047;28;20421;-73
2023/08/13 07:06:55;;;;;;;6.60;4.50;;;26.00;99.90;;;;;;5098915;28;20404;-73
2023/08/13 07:09:24;;;;;;;5.78;4.47;;;26.10;99.90;;;;;;5097495;28;20423;-73
2023/08/13 07:11:50;;;;;;;6.93;4.50;;;26.20;99.90;;;;;;5093153;28;20414;-73
2023/08/13 07:14:17;;;;;;;7.35;4.13;;;26.30;99.90;;;;;;5091819;28;20411;-73
2023/08/13 07:16:43;;;;;;;6.47;4.60;;;26.30;99.90;;;;;;5091473;28;20420;-73
2023/08/13 07:19:09;;;;;;;6.18;4.60;;;26.60;99.90;;;;;;5088483;28;21193;-74
2023/08/13 07:21:36;;;;;;;9.30;5.00;;;26.60;99.90;;;;;;5084383;28;20400;-73
2023/08/13 07:24:04;;;;;;;8.50;4.80;;;26.80;99.90;;;;;;5098302;28;20452;-74
2023/08/13 07:26:31;;;;;;;7.22;4.82;;;26.90;99.90;;;;;;5091221;28;20429;-73
2023/08/13 07:29:00;;;;;;;7.10;4.85;;;26.90;99.90;;;;;;5092190;28;20502;-73
2023/08/13 07:31:26;;;;;;;6.97;5.05;;;27.00;99.90;;;;;;5091930;28;21188;-73
2023/08/13 07:33:55;;;;;;;7.80;5.07;;;27.00;99.90;;;;;;5089558;28;20405;-73
2023/08/13 07:36:21;;;;;;;9.50;5.35;;;27.00;99.90;;;;;;5087759;28;20497;-73
2023/08/13 07:38:48;;;;;;;8.50;5.20;;;27.10;99.90;;;;;;5080628;28;20408;-73
2023/08/13 07:41:14;;;;;;;5.95;5.10;;;27.10;99.90;;;;;;5098141;28;20485;-73
2023/08/13 07:43:40;;;;;;;7.70;5.30;;;27.20;99.90;;;;;;5124802;27;20781;-73
2023/08/13 07:46:06;;;;;;;9.57;5.03;;;27.30;99.90;;;;;;5096102;27;20416;-73
2023/08/13 07:48:33;;;;;;;7.43;5.03;;;27.40;99.90;;;;;;5091525;27;20412;-73
2023/08/13 07:50:59;;;;;;;6.70;4.97;;;27.40;99.90;;;;;;5095569;28;20411;-73
2023/08/13 07:53:29;;;;;;;7.28;5.28;;;27.50;99.90;;;;;;5094433;27;20493;-73
2023/08/13 07:55:56;;;;;;;6.60;4.90;;;27.50;99.90;;;;;;5095956;27;20401;-73
2023/08/13 07:58:22;;;;;;;6.85;4.68;;;27.60;99.90;;;;;;5093534;27;20491;-73
2023/08/13 08:00:49;;;;;;;6.97;5.22;;;27.60;99.90;;;;;;5091659;28;20408;-73
2023/08/13 08:03:15;;;;;;;7.22;5.05;;;27.70;99.90;;;;;;5081594;28;20412;-74
2023/08/13 08:05:41;;;;;;;8.55;5.13;;;27.70;99.90;;;;;;5116278;27;20400;-73
2023/08/13 08:08:08;;;;;;;8.75;4.90;;;27.80;99.90;;;;;;5116138;27;20449;-73
2023/08/13 08:10:34;;;;;;;6.55;4.95;;;27.90;99.90;;;;;;5113915;27;20398;-74
2023/08/13 08:13:01;;;;;;;8.02;5.38;;;27.90;99.90;;;;;;5099742;27;20443;-74
2023/08/13 08:15:27;;;;;;;6.15;4.93;;;28.00;99.90;;;;;;5090542;27;20504;-73
2023/08/13 08:17:53;;;;;;;6.30;4.88;;;28.00;99.90;;;;;;5097128;27;20494;-74
2023/08/13 08:20:20;;;;;;;7.15;4.60;;;28.10;99.90;;;;;;5093695;27;20467;-74
2023/08/13 08:22:47;;;;;;;6.88;4.93;;;28.20;99.90;;;;;;5095853;27;20484;-74
2023/08/13 08:25:13;;;;;;;10.45;4.90;;;28.20;99.90;;;;;;5089404;28;20415;-74
2023/08/13 08:27:40;;;;;;;10.05;4.82;;;28.30;99.90;;;;;;5103119;27;20455;-74
2023/08/13 08:30:07;;;;;;;7.23;4.73;;;28.30;99.90;;;;;;5093670;27;20402;-73
2023/08/13 08:32:35;;;;;;;7.53;4.53;;;28.40;99.90;;;;;;5090079;27;20441;-74
2023/08/13 08:35:03;;;;;;;7.78;4.70;;;28.40;99.90;;;;;;5091236;27;20411;-72
2023/08/13 08:37:31;;;;;;;8.10;5.15;;;28.50;99.90;;;;;;5095370;27;20404;-72
2023/08/13 08:39:59;;;;;;;6.80;4.50;;;28.60;99.90;;;;;;5096747;27;20415;-73
2023/08/13 08:42:26;;;;;;;8.05;4.75;;;28.60;99.90;;;;;;5093994;27;20416;-72
2023/08/13 08:44:53;;;;;;;8.82;5.03;;;28.60;99.90;;;;;;5101531;27;20419;-72
2023/08/13 08:47:23;;;;;;;7.80;5.00;;;28.70;99.90;;;;;;5098740;27;20488;-72
2023/08/13 08:49:51;;;;;;;9.00;4.53;;;28.70;99.90;;;;;;5090029;27;20417;-72
2023/08/13 08:52:19;;;;;;;7.85;4.63;;;28.80;99.90;;;;;;5090375;27;20516;-72
2023/08/13 08:54:48;;;;;;;6.45;4.45;;;28.80;99.90;;;;;;5092585;27;20890;-72
2023/08/13 08:57:15;;;;;;;6.47;4.50;;;28.90;99.90;;;;;;5093080;27;20522;-72
2023/08/13 08:59:44;;;;;;;9.90;4.50;;;29.00;99.90;;;;;;5123381;27;20509;-72
2023/08/13 09:02:13;;;;;;;8.82;4.53;;;29.10;99.90;;;;;;5092912;27;20415;-72
2023/08/13 09:04:39;;;;;;;8.50;4.30;;;29.20;99.90;;;;;;5100934;27;20751;-72
2023/08/13 09:07:06;;;;;;;8.50;4.60;;;29.20;99.90;;;;;;5089877;27;20431;-72
2023/08/13 09:09:33;;;;;;;6.38;4.45;;;29.40;99.90;;;;;;5123770;27;20414;-72
2023/08/13 09:12:00;;;;;;;7.70;4.80;;;29.40;99.90;;;;;;5094868;27;20955;-72
2023/08/13 09:14:27;;;;;;;6.82;4.40;;;29.40;99.90;;;;;;5088689;27;20497;-72
2023/08/13 09:16:56;;;;;;;8.15;4.70;;;29.60;99.90;;;;;;5089530;27;20406;-72
2023/08/13 09:19:25;;;;;;;6.85;4.60;;;29.60;99.90;;;;;;5083367;27;20410;-72
2023/08/13 09:21:59;;;;;;;6.20;4.20;;;29.70;99.90;;;;;;5101133;27;20435;-72
2023/08/13 09:24:41;;;;;;;5.85;4.05;;;29.80;99.90;;;;;;5098185;27;21101;-72
2023/08/13 09:27:09;;;;;;;8.57;4.50;;;30.00;99.90;;;;;;5096298;27;20530;-72
2023/08/13 09:29:39;;;;;;;6.57;4.57;;;30.10;99.90;;;;;;5093634;27;20408;-72
2023/08/13 09:32:06;;;;;;;7.25;4.30;;;30.20;99.90;;;;;;5093069;27;20418;-72
2023/08/13 09:34:35;;;;;;;7.75;4.35;;;30.20;99.90;;;;;;5096266;27;21257;-72
2023/08/13 09:37:02;;;;;;;7.47;4.40;;;30.30;99.90;;;;;;5127978;27;20851;-72
2023/08/13 09:39:31;;;;;;;7.53;4.38;;;30.40;99.90;;;;;;5098454;27;20396;-72
2023/08/13 09:41:59;;;;;;;7.00;4.40;;;30.50;99.90;;;;;;5108924;27;20405;-72
2023/08/13 09:44:25;;;;;;;7.80;4.68;;;30.50;99.90;;;;;;5092529;27;20404;-72
2023/08/13 09:46:58;;;;;;;6.75;4.13;;;30.60;99.90;;;;;;5096131;27;20766;-72
2023/08/13 09:49:28;;;;;;;9.15;4.70;;;30.70;99.90;;;;;;5096550;27;20408;-72
2023/08/13 09:52:00;;;;;;;9.45;4.28;;;30.80;99.90;;;;;;5103053;27;20528;-72
2023/08/13 09:54:52;;;;;;;7.80;4.40;;;30.90;99.90;;;;;;5100972;27;20438;-72
2023/08/13 09:57:22;;;;;;;7.32;4.35;;;30.90;99.90;;;;;;5091882;27;21464;-72
2023/08/13 09:59:50;;;;;;;6.70;4.20;;;30.90;99.90;;;;;;5088060;27;20900;-72
2023/08/13 10:02:21;;;;;;;6.68;4.10;;;31.00;99.90;;;;;;5114971;27;20419;-72
2023/08/13 10:04:48;;;;;;;6.77;4.20;;;31.10;99.90;;;;;;5082821;27;20406;-72
2023/08/13 10:07:14;;;;;;;7.53;4.10;;;31.10;99.90;;;;;;5098943;27;20507;-72
2023/08/13 10:09:42;;;;;;;7.93;4.30;;;31.20;99.90;;;;;;5098349;27;20415;-72
2023/08/13 10:12:12;;;;;;;5.97;4.00;;;31.30;99.90;;;;;;5090243;28;20511;-72
2023/08/13 10:14:39;;;;;;;6.60;4.28;;;31.30;99.90;;;;;;5089204;28;20780;-72
2023/08/13 10:17:07;;;;;;;6.97;4.18;;;31.30;99.90;;;;;;5095370;27;21020;-72
2023/08/13 10:19:49;;;;;;;7.57;4.30;;;31.30;99.90;;;;;;5099610;27;20406;-72
2023/08/13 10:22:35;;;;;;;7.87;4.30;;;31.30;99.90;;;;;;5126268;27;20406;-72
2023/08/13 10:25:03;;;;;;;5.93;4.22;;;31.30;99.90;;;;;;5098712;27;20502;-71
2023/08/13 10:27:35;;;;;;;6.50;4.20;;;31.20;99.90;;;;;;5094882;27;20410;-72
2023/08/13 10:30:07;;;;;;;5.55;3.90;;;31.20;99.90;;;;;;5096089;27;20421;-72
2023/08/13 10:32:39;;;;;;;8.75;4.20;;;31.30;99.90;;;;;;5096216;27;20420;-72
2023/08/13 10:35:21;;;;;;;6.43;4.07;;;31.30;99.90;;;;;;5100944;27;20490;-72
2023/08/13 10:37:55;;;;;;;6.38;4.40;;;31.30;99.90;;;;;;5093239;27;21160;-72
2023/08/13 10:40:22;;;;;;;6.72;4.28;;;31.40;99.90;;;;;;5094435;27;20408;-72
2023/08/13 10:42:53;;;;;;;6.57;4.20;;;31.40;99.90;;;;;;5093477;27;20489;-72
2023/08/13 10:45:37;;;;;;;6.95;4.15;;;31.40;99.90;;;;;;5089397;27;20404;-72
2023/08/13 10:48:06;;;;;;;8.43;4.10;;;31.30;99.90;;;;;;5084272;28;20508;-72
2023/08/13 10:50:45;;;;;;;8.37;4.30;;;31.30;99.90;;;;;;5074344;28;20788;-72
2023/08/13 10:53:26;;;;;;;8.40;4.30;;;31.30;99.90;;;;;;5101726;28;20442;-72
2023/08/13 10:55:55;;;;;;;8.32;4.30;;;31.30;99.90;;;;;;5099345;28;20406;-72
2023/08/13 10:58:28;;;;;;;8.77;4.15;;;31.30;99.90;;;;;;5094946;28;20478;-72
2023/08/13 11:01:09;;;;;;;6.82;4.10;;;31.30;99.90;;;;;;5091545;28;20475;-72
2023/08/13 11:03:45;;;;;;;5.25;4.20;;;31.30;99.90;;;;;;5096707;28;20419;-72
2023/08/13 11:06:14;;;;;;;6.90;4.05;;;31.30;99.90;;;;;;5103083;28;20402;-72
2023/08/13 11:08:43;;;;;;;5.93;3.95;;;31.40;99.90;;;;;;5098987;28;20487;-72
2023/08/13 11:11:11;;;;;;;8.05;4.00;;;31.40;99.90;;;;;;5094834;28;21075;-72
2023/08/13 11:13:37;;;;;;;8.05;4.07;;;31.40;99.90;;;;;;5091304;28;20432;-72
2023/08/13 11:16:03;;;;;;;8.30;3.90;;;31.40;99.90;;;;;;5110349;27;20461;-72
2023/08/13 11:18:30;;;;;;;6.57;3.80;;;31.40;99.90;;;;;;5099685;28;20403;-72
2023/08/13 11:20:56;;;;;;;5.90;3.80;;;31.30;99.90;;;;;;5099527;27;20460;-72
2023/08/13 11:23:23;;;;;;;6.57;4.00;;;31.40;99.90;;;;;;5108684;27;20431;-72
2023/08/13 11:25:51;;;;;;;10.50;4.00;;;31.40;99.90;;;;;;5097883;27;20404;-72
2023/08/13 11:28:28;;;;;;;5.07;3.72;;;31.40;99.90;;;;;;5110620;27;20404;-72
2023/08/13 11:30:57;;;;;;;9.70;4.45;;;31.50;99.90;;;;;;5095133;28;21089;-72
2023/08/13 11:33:24;;;;;;;8.02;4.40;;;31.50;99.90;;;;;;5104170;27;20628;-72
2023/08/13 11:35:52;;;;;;;5.90;4.10;;;31.50;99.90;;;;;;5129683;27;20401;-72
2023/08/13 11:38:19;;;;;;;8.05;4.40;;;31.40;99.90;;;;;;5098076;27;20889;-72
2023/08/13 11:40:46;;;;;;;4.70;4.10;;;31.50;99.90;;;;;;5093872;27;20415;-72
2023/08/13 11:43:13;;;;;;;6.07;3.90;;;31.50;99.90;;;;;;5114177;27;20410;-72
2023/08/13 11:45:41;;;;;;;5.93;3.83;;;31.40;99.90;;;;;;5098857;27;20758;-72
2023/08/13 11:48:18;;;;;;;7.05;4.20;;;31.40;99.90;;;;;;5098476;27;20495;-72
2023/08/13 11:50:55;;;;;;;6.13;3.92;;;31.40;99.90;;;;;;5100627;27;20412;-72
2023/08/13 11:53:21;;;;;;;5.22;3.90;;;31.30;99.90;;;;;;5094714;27;20414;-72
2023/08/13 11:55:49;;;;;;;5.45;4.10;;;31.40;99.90;;;;;;5099306;27;20526;-72
2023/08/13 11:58:17;;;;;;;6.20;4.10;;;31.30;99.90;;;;;;5104408;27;20506;-72
2023/08/13 12:00:46;;;;;;;7.45;3.90;;;31.30;99.90;;;;;;5080184;27;20720;-72
2023/08/13 12:03:14;;;;;;;5.60;3.83;;;31.30;99.90;;;;;;5100729;27;20422;-72
2023/08/13 12:05:42;;;;;;;5.82;4.03;;;31.20;99.90;;;;;;5102212;27;20443;-72
2023/08/13 12:08:09;;;;;;;7.85;3.83;;;31.30;99.90;;;;;;5077697;27;20409;-72
2023/08/13 12:10:38;;;;;;;5.80;3.70;;;31.20;99.90;;;;;;5099418;27;20830;-72
2023/08/13 12:13:05;;;;;;;6.33;3.77;;;31.20;99.90;;;;;;5100151;27;20414;-72
2023/08/13 12:15:31;;;;;;;5.97;3.80;;;31.20;99.90;;;;;;5097531;27;20401;-72
2023/08/13 12:17:59;;;;;;;6.82;3.80;;;31.30;99.90;;;;;;5096463;27;20428;-72
2023/08/13 12:20:27;;;;;;;5.18;3.90;;;31.20;99.90;;;;;;5100764;27;20881;-72
2023/08/13 12:22:54;;;;;;;6.43;3.83;;;31.20;99.90;;;;;;5080405;28;20413;-72
2023/08/13 12:25:20;;;;;;;5.43;3.83;;;31.30;99.90;;;;;;5094218;27;21062;-72
2023/08/13 12:27:54;;;;;;;9.07;4.20;;;31.30;99.90;;;;;;5097022;27;20483;-72
2023/08/13 12:30:21;;;;;;;6.60;4.18;;;31.30;99.90;;;;;;5126143;27;20777;-72
2023/08/13 12:32:48;;;;;;;6.88;4.05;;;31.20;99.90;;;;;;5097514;27;20423;-72
2023/08/13 12:35:14;;;;;;;6.55;3.90;;;31.20;99.90;;;;;;5099924;27;20471;-72
2023/08/13 12:37:40;;;;;;;4.35;3.78;;;31.30;99.90;;;;;;5102381;27;20788;-72
2023/08/13 12:40:11;;;;;;;6.63;3.90;;;31.30;99.90;;;;;;5102102;27;20401;-72
2023/08/13 12:42:39;;;;;;;8.25;3.80;;;31.20;99.90;;;;;;5099596;27;21217;-72
2023/08/13 12:45:06;;;;;;;6.03;3.80;;;31.20;99.90;;;;;;5101800;27;20928;-72
2023/08/13 12:47:37;;;;;;;6.40;3.88;;;31.20;99.90;;;;;;5095403;27;20831;-72
2023/08/13 12:50:06;;;;;;;7.85;3.80;;;31.10;99.90;;;;;;5120531;27;20551;-72